Time;durP1;ratioP1;P1;durP2;ratioP2;P2;SDS_P1;SDS_P2;PMS_P1;PMS_P2;Temp;Humidity;BMP_temperature;BMP_pressure;BME280_temperature;BME280_humidity;BME280_pressure;Samples;Min_cycle;Max_cycle;Signal;HPM_P1;HPM_P2
2022/01/31 00:00:17;;;;;;;9.93;3.30;;;5.90;90.80;;;;;;5010422;28;20207;-90
2022/01/31 00:02:44;;;;;;;4.82;2.10;;;5.90;90.80;;;;;;4997016;28;20212;-91
2022/01/31 00:05:11;;;;;;;8.32;2.92;;;5.90;90.80;;;;;;4997517;28;20285;-91
2022/01/31 00:07:37;;;;;;;7.93;2.13;;;5.90;90.80;;;;;;4997386;28;20191;-90
2022/01/31 00:10:08;;;;;;;8.50;3.45;;;5.90;90.80;;;;;;4997003;28;20590;-90
2022/01/31 00:12:51;;;;;;;6.50;2.55;;;5.90;90.80;;;;;;4997405;28;20752;-90
2022/01/31 00:15:17;;;;;;;8.25;2.88;;;5.80;90.80;;;;;;4997555;28;20203;-89
2022/01/31 00:17:42;;;;;;;8.20;2.77;;;5.80;90.90;;;;;;4997053;28;20190;-90
2022/01/31 00:20:09;;;;;;;9.17;2.80;;;5.80;90.90;;;;;;4997212;28;20598;-90
2022/01/31 00:22:35;;;;;;;7.28;3.00;;;5.80;91.00;;;;;;4997085;28;20188;-89
2022/01/31 00:25:00;;;;;;;12.27;3.13;;;5.80;91.00;;;;;;4997427;28;20196;-90
2022/01/31 00:27:26;;;;;;;7.77;2.37;;;5.80;91.10;;;;;;4997241;28;20215;-90
2022/01/31 00:29:52;;;;;;;11.50;2.47;;;5.70;91.30;;;;;;4997056;28;20567;-90
2022/01/31 00:32:17;;;;;;;10.77;2.93;;;5.70;91.40;;;;;;4997300;28;20203;-90
2022/01/31 00:34:43;;;;;;;14.17;3.60;;;5.70;91.50;;;;;;5002061;28;20251;-90
2022/01/31 00:37:09;;;;;;;9.10;2.10;;;5.60;91.60;;;;;;5002243;28;20184;-90
2022/01/31 00:39:36;;;;;;;8.17;2.30;;;5.60;91.70;;;;;;4997468;28;20426;-90
2022/01/31 00:42:04;;;;;;;10.55;2.53;;;5.50;91.70;;;;;;4997502;28;20243;-90
2022/01/31 00:44:41;;;;;;;10.05;3.38;;;5.50;91.80;;;;;;4996712;28;20272;-90
2022/01/31 00:47:18;;;;;;;7.25;2.55;;;5.40;91.80;;;;;;4997154;28;20191;-90
2022/01/31 00:52:41;;;;;;;5.40;1.92;;;5.30;91.80;;;;;;4998023;28;20551;-90
2022/01/31 00:55:09;;;;;;;12.02;4.20;;;5.30;91.80;;;;;;4996572;28;20724;-90
2022/01/31 00:57:35;;;;;;;7.28;2.60;;;5.20;92.10;;;;;;5001693;28;20561;-90
2022/01/31 01:00:01;;;;;;;10.02;2.83;;;5.20;92.10;;;;;;5000847;28;20214;-90
2022/01/31 01:02:27;;;;;;;12.57;2.50;;;5.10;91.70;;;;;;5010545;28;20187;-89
2022/01/31 01:04:53;;;;;;;13.97;3.17;;;5.10;91.80;;;;;;4997197;28;20200;-90
2022/01/31 01:07:22;;;;;;;9.43;3.05;;;5.00;91.70;;;;;;5000168;28;20395;-90
2022/01/31 01:09:49;;;;;;;13.38;2.83;;;5.00;91.70;;;;;;4996196;28;20258;-90
2022/01/31 01:12:16;;;;;;;5.88;2.10;;;5.00;91.70;;;;;;4996591;28;20180;-89
2022/01/31 01:14:43;;;;;;;9.88;3.00;;;4.90;91.60;;;;;;4995250;28;20200;-90
2022/01/31 01:17:09;;;;;;;9.13;2.25;;;4.90;91.60;;;;;;4996694;28;20194;-89
2022/01/31 01:19:35;;;;;;;10.03;2.43;;;4.90;91.60;;;;;;4999325;28;20231;-90
2022/01/31 01:22:01;;;;;;;11.05;2.58;;;4.90;91.60;;;;;;5001818;28;20903;-91
2022/01/31 01:24:27;;;;;;;10.07;2.78;;;4.90;91.50;;;;;;4995851;28;20176;-91
2022/01/31 01:26:53;;;;;;;6.87;2.20;;;4.90;91.60;;;;;;4996035;28;20187;-90
2022/01/31 01:29:20;;;;;;;18.10;3.03;;;4.80;91.40;;;;;;4995703;28;20180;-90
2022/01/31 01:31:47;;;;;;;8.15;2.15;;;4.90;91.50;;;;;;4996200;28;20361;-91
2022/01/31 01:34:13;;;;;;;7.72;2.88;;;4.80;91.50;;;;;;4995692;28;20191;-90
2022/01/31 01:36:40;;;;;;;15.23;3.42;;;4.80;91.50;;;;;;4995690;28;20608;-90
2022/01/31 01:39:06;;;;;;;12.27;3.22;;;4.80;91.40;;;;;;4995615;28;20186;-90
2022/01/31 01:41:32;;;;;;;13.03;2.97;;;4.80;91.50;;;;;;4995528;28;20745;-90
2022/01/31 01:43:58;;;;;;;12.38;2.78;;;4.80;91.40;;;;;;4995938;28;20180;-90
2022/01/31 01:46:24;;;;;;;5.80;2.70;;;4.80;91.40;;;;;;4995442;28;20210;-91
2022/01/31 01:48:51;;;;;;;6.13;2.67;;;4.70;91.40;;;;;;4995287;28;20453;-90
2022/01/31 01:51:17;;;;;;;9.27;2.50;;;4.70;91.40;;;;;;4995000;28;20234;-89
2022/01/31 01:53:43;;;;;;;9.40;2.90;;;4.70;91.20;;;;;;4995282;28;20183;-90
2022/01/31 01:56:09;;;;;;;8.35;2.88;;;4.70;91.30;;;;;;4995127;28;20310;-90
2022/01/31 01:58:40;;;;;;;9.38;3.05;;;4.70;91.30;;;;;;4996735;28;20187;-90
2022/01/31 02:01:08;;;;;;;9.45;3.50;;;4.80;91.30;;;;;;4999683;28;20326;-90
2022/01/31 02:03:36;;;;;;;4.93;2.20;;;4.80;91.20;;;;;;4999550;28;20183;-90
2022/01/31 02:06:04;;;;;;;15.20;3.15;;;4.80;91.20;;;;;;5003037;28;20204;-90
2022/01/31 02:08:39;;;;;;;6.07;3.20;;;4.70;91.20;;;;;;5009193;28;20243;-89
2022/01/31 02:11:06;;;;;;;13.50;2.70;;;4.80;91.30;;;;;;4995094;28;20223;-89
2022/01/31 02:13:31;;;;;;;8.88;2.45;;;4.80;91.30;;;;;;4995698;28;20211;-90
2022/01/31 02:15:57;;;;;;;9.10;2.63;;;4.80;91.30;;;;;;4995055;28;20203;-91
2022/01/31 02:18:26;;;;;;;14.93;3.30;;;4.70;91.30;;;;;;4995435;28;20175;-90
2022/01/31 02:20:52;;;;;;;11.82;2.70;;;4.70;91.20;;;;;;4995148;28;20242;-91
2022/01/31 02:23:18;;;;;;;9.80;2.87;;;4.70;91.20;;;;;;4995123;28;20578;-90
2022/01/31 02:26:02;;;;;;;9.32;2.03;;;4.60;91.10;;;;;;4995575;28;20203;-90
2022/01/31 02:28:29;;;;;;;14.40;3.03;;;4.60;91.10;;;;;;4995327;28;20183;-91
2022/01/31 02:30:56;;;;;;;11.35;2.42;;;4.60;91.20;;;;;;4994732;28;20724;-90
2022/01/31 02:33:22;;;;;;;10.43;2.10;;;4.60;91.30;;;;;;4994936;28;20195;-90
2022/01/31 02:35:49;;;;;;;9.23;3.80;;;4.50;91.70;;;;;;4994682;28;20307;-91
2022/01/31 02:38:16;;;;;;;10.88;3.08;;;4.50;91.30;;;;;;4994447;28;20283;-90
2022/01/31 02:40:42;;;;;;;9.82;3.22;;;4.50;91.30;;;;;;4995398;28;20208;-90
2022/01/31 02:43:07;;;;;;;7.28;3.17;;;4.40;91.30;;;;;;4995153;28;20184;-90
2022/01/31 02:45:33;;;;;;;8.17;3.17;;;4.40;91.30;;;;;;4998815;28;20206;-90
2022/01/31 02:48:02;;;;;;;8.50;2.97;;;4.40;91.30;;;;;;5002034;28;20520;-90
2022/01/31 02:50:28;;;;;;;9.80;2.55;;;4.30;91.30;;;;;;4994905;28;20444;-90
2022/01/31 02:53:10;;;;;;;10.30;2.53;;;4.30;91.40;;;;;;4995091;28;20188;-90
2022/01/31 02:55:40;;;;;;;8.93;3.22;;;4.30;91.40;;;;;;4995057;28;20290;-90
2022/01/31 02:58:06;;;;;;;13.82;3.17;;;4.30;91.40;;;;;;4994906;28;20194;-90
2022/01/31 03:00:32;;;;;;;10.93;3.13;;;4.30;91.40;;;;;;4995436;28;20184;-90
2022/01/31 03:02:57;;;;;;;9.57;2.90;;;4.20;91.40;;;;;;4994489;28;20187;-90
2022/01/31 03:05:23;;;;;;;7.60;2.73;;;4.30;91.50;;;;;;4995085;28;20433;-89
2022/01/31 03:07:49;;;;;;;14.20;3.60;;;4.30;91.80;;;;;;4994627;28;20184;-91
2022/01/31 03:10:15;;;;;;;7.90;3.03;;;4.30;91.50;;;;;;4993944;28;20235;-90
2022/01/31 03:12:40;;;;;;;10.80;3.33;;;4.30;91.40;;;;;;4994242;28;20187;-90
2022/01/31 03:15:06;;;;;;;8.10;2.83;;;4.30;91.40;;;;;;4998238;28;20202;-90
2022/01/31 03:17:33;;;;;;;5.70;2.60;;;4.30;91.40;;;;;;5005944;28;20439;-90
2022/01/31 03:19:59;;;;;;;7.25;3.13;;;4.20;91.50;;;;;;4995656;28;20412;-90
2022/01/31 03:22:25;;;;;;;18.50;5.70;;;4.30;91.50;;;;;;4994419;28;20668;-90
2022/01/31 03:24:51;;;;;;;7.63;2.75;;;4.30;91.50;;;;;;4994455;28;20226;-89
2022/01/31 03:27:17;;;;;;;8.20;2.67;;;4.30;91.50;;;;;;4994363;28;20184;-90
2022/01/31 03:29:43;;;;;;;8.03;2.40;;;4.30;91.70;;;;;;4995406;28;20202;-89
2022/01/31 03:32:09;;;;;;;12.25;3.83;;;4.20;91.50;;;;;;4994358;28;20188;-90
2022/01/31 03:34:35;;;;;;;15.52;3.67;;;4.20;91.60;;;;;;4994238;28;20207;-91
2022/01/31 03:37:00;;;;;;;7.17;2.90;;;4.20;91.60;;;;;;5002505;28;20187;-90
2022/01/31 03:39:26;;;;;;;8.53;3.03;;;4.10;91.70;;;;;;5010831;28;20413;-90
2022/01/31 03:41:52;;;;;;;9.73;2.73;;;4.10;91.70;;;;;;4997952;28;20408;-90
2022/01/31 03:44:18;;;;;;;11.73;2.77;;;4.10;91.80;;;;;;4998482;28;20237;-90
2022/01/31 03:46:44;;;;;;;9.50;2.70;;;4.10;91.90;;;;;;4997947;28;20461;-90
2022/01/31 03:49:10;;;;;;;11.10;2.50;;;4.10;91.90;;;;;;4997936;28;20633;-90
2022/01/31 03:51:36;;;;;;;9.03;2.57;;;4.10;92.00;;;;;;4997291;28;20228;-90
2022/01/31 03:54:03;;;;;;;11.93;3.47;;;4.10;92.10;;;;;;4997702;28;20179;-90
2022/01/31 03:56:29;;;;;;;13.35;2.33;;;4.10;92.10;;;;;;4997550;28;20937;-90
2022/01/31 03:58:55;;;;;;;27.73;11.80;;;4.00;92.20;;;;;;5001946;28;20610;-89
2022/01/31 04:01:23;;;;;;;16.20;3.40;;;4.00;92.20;;;;;;4999334;28;20246;-89
2022/01/31 04:03:49;;;;;;;34.55;13.25;;;4.00;92.20;;;;;;5006319;28;20406;-90
2022/01/31 04:06:15;;;;;;;23.13;13.50;;;4.00;92.20;;;;;;4998820;28;20207;-89
2022/01/31 04:08:40;;;;;;;11.43;5.07;;;4.00;92.20;;;;;;5000523;28;20559;-90
2022/01/31 04:11:06;;;;;;;35.67;14.40;;;4.00;92.30;;;;;;4998739;28;20454;-90
2022/01/31 04:13:32;;;;;;;25.67;9.27;;;3.90;92.50;;;;;;4997553;28;20183;-90
2022/01/31 04:15:58;;;;;;;12.17;4.37;;;3.90;92.50;;;;;;4997278;28;20441;-90
2022/01/31 04:18:23;;;;;;;13.37;4.40;;;3.90;92.40;;;;;;4997575;28;20757;-89
2022/01/31 04:20:49;;;;;;;21.93;7.37;;;3.90;92.40;;;;;;4997478;28;20456;-90
2022/01/31 04:23:18;;;;;;;23.90;11.00;;;3.80;92.50;;;;;;4997599;28;20271;-89
2022/01/31 04:28:18;;;;;;;14.43;3.87;;;3.80;92.60;;;;;;5000197;28;20207;-90
2022/01/31 04:33:31;;;;;;;18.75;3.67;;;3.80;92.70;;;;;;4996827;28;20291;-90
2022/01/31 04:35:57;;;;;;;11.60;4.00;;;3.80;92.70;;;;;;4997025;28;20231;-90
2022/01/31 04:38:24;;;;;;;11.87;2.97;;;3.80;92.80;;;;;;4998301;28;20672;-90
2022/01/31 04:40:50;;;;;;;8.20;3.50;;;3.80;92.80;;;;;;5001537;28;20254;-90
2022/01/31 04:43:16;;;;;;;13.67;2.60;;;3.80;92.90;;;;;;4997088;28;20180;-90
2022/01/31 04:45:47;;;;;;;8.23;2.67;;;3.80;92.90;;;;;;4997494;28;20424;-90
2022/01/31 04:48:14;;;;;;;15.18;3.38;;;3.80;92.90;;;;;;4996308;28;20542;-89
2022/01/31 04:50:40;;;;;;;8.63;2.90;;;3.80;92.90;;;;;;4996006;28;20251;-90
2022/01/31 04:53:06;;;;;;;11.75;3.28;;;3.80;92.90;;;;;;4996971;28;20184;-90
2022/01/31 04:55:32;;;;;;;9.93;3.17;;;3.80;93.20;;;;;;4996596;28;20575;-90
2022/01/31 04:57:58;;;;;;;9.10;2.70;;;3.80;93.20;;;;;;4996395;28;20184;-91
2022/01/31 05:00:25;;;;;;;11.30;2.97;;;3.80;93.30;;;;;;4996766;28;20201;-90
2022/01/31 05:02:51;;;;;;;13.20;2.92;;;3.80;93.30;;;;;;4998038;28;20840;-90
2022/01/31 05:05:16;;;;;;;10.67;3.13;;;3.90;93.20;;;;;;4996911;28;20242;-90
2022/01/31 05:07:42;;;;;;;9.00;3.30;;;3.90;93.30;;;;;;4996654;28;20905;-91
2022/01/31 05:10:08;;;;;;;12.53;2.80;;;3.90;93.30;;;;;;4996343;28;20318;-90
2022/01/31 05:12:34;;;;;;;9.82;3.42;;;3.90;93.20;;;;;;4996194;28;20439;-90
2022/01/31 05:15:00;;;;;;;8.75;2.88;;;3.90;93.20;;;;;;4997827;28;20234;-90
2022/01/31 05:17:27;;;;;;;11.10;3.20;;;4.00;93.30;;;;;;5004744;28;20184;-89
2022/01/31 05:19:53;;;;;;;15.23;5.50;;;4.00;93.50;;;;;;4995912;28;20430;-90
2022/01/31 05:22:18;;;;;;;15.13;6.07;;;3.90;93.60;;;;;;4995483;28;20190;-90
2022/01/31 05:24:44;;;;;;;8.63;3.60;;;3.80;93.70;;;;;;4996254;28;20400;-90
2022/01/31 05:27:10;;;;;;;10.60;4.77;;;3.70;93.70;;;;;;4995879;28;20192;-90
2022/01/31 05:29:35;;;;;;;16.13;4.73;;;3.80;93.70;;;;;;4997342;28;20323;-90
2022/01/31 05:32:01;;;;;;;12.93;3.43;;;3.80;93.60;;;;;;5002417;28;20492;-90
2022/01/31 05:34:27;;;;;;;9.53;4.20;;;3.90;93.60;;;;;;4996302;28;20774;-90
2022/01/31 05:36:55;;;;;;;13.07;3.37;;;3.90;93.60;;;;;;4995335;28;20453;-90
2022/01/31 05:39:25;;;;;;;12.50;3.03;;;3.90;93.50;;;;;;4995879;28;20434;-90
2022/01/31 05:41:52;;;;;;;11.13;3.83;;;4.00;93.60;;;;;;4996207;28;20184;-90
2022/01/31 05:44:18;;;;;;;11.52;3.83;;;4.00;93.50;;;;;;4996167;28;20190;-90
2022/01/31 05:46:44;;;;;;;11.45;2.95;;;4.10;93.50;;;;;;4995584;28;20180;-90
2022/01/31 05:49:10;;;;;;;9.40;3.43;;;4.10;93.50;;;;;;4995925;28;20649;-90
2022/01/31 05:51:48;;;;;;;9.33;3.10;;;4.10;93.60;;;;;;4995317;28;20547;-89
2022/01/31 05:54:14;;;;;;;11.27;2.90;;;4.10;93.60;;;;;;4994704;28;20472;-90
2022/01/31 05:56:40;;;;;;;16.03;5.57;;;4.10;94.00;;;;;;4995452;28;20609;-91
2022/01/31 05:59:06;;;;;;;14.48;6.90;;;4.10;93.60;;;;;;4994305;28;20199;-90
2022/01/31 06:01:32;;;;;;;17.80;7.23;;;4.00;93.80;;;;;;4993450;28;20216;-90
2022/01/31 06:03:57;;;;;;;46.50;27.50;;;4.00;93.70;;;;;;4993578;28;20433;-89
2022/01/31 06:06:23;;;;;;;12.50;4.97;;;4.00;93.80;;;;;;4994872;28;20463;-90
2022/01/31 06:08:49;;;;;;;13.30;3.77;;;4.00;93.80;;;;;;4995098;28;20238;-90
2022/01/31 06:11:15;;;;;;;8.70;3.30;;;3.90;93.90;;;;;;5007199;28;20212;-90
2022/01/31 06:13:44;;;;;;;7.83;3.20;;;3.90;94.00;;;;;;4994810;28;20176;-90
2022/01/31 06:16:10;;;;;;;10.50;3.80;;;3.90;94.20;;;;;;4977791;28;20457;-90
2022/01/31 06:18:36;;;;;;;11.45;3.90;;;3.90;94.30;;;;;;4992784;28;20724;-90
2022/01/31 06:21:03;;;;;;;13.10;4.00;;;3.90;94.40;;;;;;4993958;28;20290;-89
2022/01/31 06:23:29;;;;;;;9.88;3.80;;;3.80;94.50;;;;;;4992900;28;20184;-90
2022/01/31 06:25:55;;;;;;;11.73;3.30;;;3.80;94.60;;;;;;4992934;28;20207;-90
2022/01/31 06:28:21;;;;;;;13.95;4.47;;;3.80;94.70;;;;;;4992253;28;20180;-89
2022/01/31 06:30:48;;;;;;;9.40;2.83;;;3.80;94.70;;;;;;4994049;28;20290;-90
2022/01/31 06:33:16;;;;;;;14.07;3.40;;;3.70;94.80;;;;;;4994886;28;20191;-89
2022/01/31 06:35:43;;;;;;;10.57;3.55;;;3.70;94.80;;;;;;4994896;28;20207;-89
2022/01/31 06:38:09;;;;;;;11.88;4.68;;;3.70;95.10;;;;;;4994655;28;20669;-90
2022/01/31 06:40:35;;;;;;;11.55;4.13;;;3.70;95.20;;;;;;4993884;28;20239;-89
2022/01/31 06:43:01;;;;;;;36.97;17.53;;;3.70;95.30;;;;;;4994361;28;20651;-89
2022/01/31 06:45:27;;;;;;;34.63;18.53;;;3.60;95.50;;;;;;4993803;28;20214;-90
2022/01/31 06:47:52;;;;;;;10.13;4.90;;;3.50;95.70;;;;;;4991736;28;20556;-89
2022/01/31 06:50:18;;;;;;;17.97;6.90;;;3.50;95.80;;;;;;4992703;28;20214;-90
2022/01/31 06:52:44;;;;;;;10.93;3.80;;;3.50;96.00;;;;;;4991768;28;20188;-90
2022/01/31 06:55:19;;;;;;;11.40;4.17;;;3.50;96.10;;;;;;4994575;28;20687;-90
2022/01/31 06:57:44;;;;;;;16.05;5.45;;;3.50;96.30;;;;;;5003454;28;20183;-90
2022/01/31 07:00:12;;;;;;;10.13;3.80;;;3.50;96.40;;;;;;4992467;28;20684;-90
2022/01/31 07:02:38;;;;;;;16.45;9.70;;;3.50;96.50;;;;;;4993219;28;20234;-90
2022/01/31 07:05:04;;;;;;;21.33;7.20;;;3.50;96.70;;;;;;4992111;28;20204;-90
2022/01/31 07:07:30;;;;;;;191.95;86.03;;;3.50;96.70;;;;;;4995318;28;21050;-90
2022/01/31 07:09:56;;;;;;;196.13;98.87;;;3.50;97.00;;;;;;5001948;28;20251;-89
2022/01/31 07:12:29;;;;;;;54.22;30.42;;;3.40;97.20;;;;;;4993951;28;20522;-90
2022/01/31 07:14:55;;;;;;;36.20;21.08;;;3.40;97.20;;;;;;4998330;28;20192;-90
2022/01/31 07:17:21;;;;;;;20.20;12.13;;;3.40;97.20;;;;;;4997109;28;20188;-89
2022/01/31 07:19:47;;;;;;;10.67;4.40;;;3.40;97.30;;;;;;4982190;28;20203;-89
2022/01/31 07:22:14;;;;;;;11.83;4.83;;;3.50;97.40;;;;;;4996438;28;20708;-90
2022/01/31 07:27:06;;;;;;;10.27;5.10;;;3.50;97.50;;;;;;5003335;28;20210;-90
2022/01/31 07:29:32;;;;;;;8.65;4.57;;;3.50;97.50;;;;;;5013902;28;20404;-90
2022/01/31 07:31:58;;;;;;;13.95;4.75;;;3.60;97.60;;;;;;4998259;28;20227;-91
2022/01/31 07:34:25;;;;;;;11.70;5.50;;;3.60;97.70;;;;;;4996479;28;20180;-90
2022/01/31 07:36:52;;;;;;;6.53;3.95;;;3.60;97.70;;;;;;4991687;28;20203;-90
2022/01/31 07:39:18;;;;;;;14.85;5.40;;;3.60;97.70;;;;;;5003718;28;20267;-90
2022/01/31 07:41:46;;;;;;;10.55;6.18;;;3.70;97.80;;;;;;4994899;28;20183;-90
2022/01/31 07:44:12;;;;;;;14.80;5.07;;;3.70;97.80;;;;;;5012818;28;20226;-90
2022/01/31 07:46:38;;;;;;;10.02;6.05;;;3.70;97.80;;;;;;4990064;28;20730;-90
2022/01/31 07:49:05;;;;;;;11.57;4.40;;;3.70;97.90;;;;;;4993174;28;20181;-91
2022/01/31 07:51:30;;;;;;;11.60;5.63;;;3.70;97.80;;;;;;5003781;28;20238;-90
2022/01/31 07:53:56;;;;;;;8.23;3.93;;;3.80;98.00;;;;;;4995647;28;20199;-91
2022/01/31 07:56:22;;;;;;;10.00;4.00;;;3.80;97.70;;;;;;4993363;28;20457;-90
2022/01/31 07:58:48;;;;;;;12.48;4.03;;;3.90;97.70;;;;;;4995925;28;20179;-90
2022/01/31 08:01:14;;;;;;;14.60;4.70;;;3.90;97.70;;;;;;4999781;28;20211;-91
2022/01/31 08:03:40;;;;;;;11.88;5.25;;;4.00;97.70;;;;;;4997492;28;20425;-90
2022/01/31 08:06:07;;;;;;;15.80;7.03;;;4.00;97.60;;;;;;5007979;28;20238;-90
2022/01/31 08:08:34;;;;;;;16.23;6.03;;;4.10;97.60;;;;;;5006997;28;20299;-90
2022/01/31 08:11:02;;;;;;;18.15;4.43;;;4.10;97.50;;;;;;4998326;28;20247;-91
2022/01/31 08:13:28;;;;;;;13.02;4.35;;;4.20;97.40;;;;;;4994003;28;20184;-90
2022/01/31 08:18:50;;;;;;;8.10;3.10;;;4.30;97.60;;;;;;4988535;28;20192;-91
2022/01/31 08:21:16;;;;;;;8.10;4.00;;;4.30;97.20;;;;;;4994709;28;20208;-91
2022/01/31 08:23:42;;;;;;;10.93;4.23;;;4.40;97.50;;;;;;4995503;28;20433;-91
2022/01/31 08:26:12;;;;;;;10.65;4.70;;;4.40;97.20;;;;;;4994618;28;20200;-90
2022/01/31 08:31:15;;;;;;;19.70;5.88;;;4.50;97.20;;;;;;4997427;28;20215;-91
2022/01/31 08:34:25;;;;;;;10.00;5.78;;;4.50;97.20;;;;;;5000058;28;20172;-90
2022/01/31 08:36:34;;;;;;;7.28;3.97;;;4.60;97.30;;;;;;4985320;28;20306;-91
2022/01/31 08:39:08;;;;;;;9.60;4.97;;;4.60;97.10;;;;;;4990080;28;20267;-90
2022/01/31 08:41:39;;;;;;;5.45;3.30;;;4.70;97.20;;;;;;4993217;28;20702;-91
2022/01/31 08:44:05;;;;;;;10.18;3.88;;;4.70;97.00;;;;;;4988928;28;20261;-91
2022/01/31 08:46:32;;;;;;;10.45;3.70;;;4.80;96.90;;;;;;4993965;28;20298;-90
2022/01/31 08:48:59;;;;;;;11.20;4.70;;;4.90;96.90;;;;;;4991084;28;20231;-90
2022/01/31 08:51:25;;;;;;;8.68;3.70;;;5.00;96.90;;;;;;4993680;28;20223;-90
2022/01/31 08:53:51;;;;;;;13.02;5.75;;;5.00;96.70;;;;;;4980386;28;20179;-90
2022/01/31 08:56:18;;;;;;;12.95;5.22;;;5.10;96.70;;;;;;4994420;28;20577;-90
2022/01/31 08:58:47;;;;;;;14.77;4.95;;;5.10;96.60;;;;;;4994780;28;20179;-91
2022/01/31 09:01:21;;;;;;;16.63;9.35;;;5.20;96.50;;;;;;5004866;28;20224;-91
2022/01/31 09:06:18;;;;;;;12.00;5.65;;;5.30;96.10;;;;;;4999542;28;20208;-91
2022/01/31 09:08:44;;;;;;;12.38;4.25;;;5.40;96.40;;;;;;4993072;28;20235;-89
2022/01/31 09:11:10;;;;;;;12.53;4.10;;;5.40;96.10;;;;;;4989315;28;20224;-90
2022/01/31 09:13:39;;;;;;;10.70;5.00;;;5.50;96.00;;;;;;4989478;28;20284;-88
2022/01/31 09:16:06;;;;;;;9.02;4.15;;;5.60;96.00;;;;;;4987977;28;20811;-89
2022/01/31 09:18:32;;;;;;;11.25;3.63;;;5.60;95.90;;;;;;4994263;28;20254;-90
2022/01/31 09:20:58;;;;;;;11.88;4.40;;;5.70;95.80;;;;;;4992710;28;20736;-90
2022/01/31 09:23:25;;;;;;;9.73;3.60;;;5.80;95.70;;;;;;4992838;28;20194;-90
2022/01/31 09:25:52;;;;;;;29.77;14.68;;;5.80;95.60;;;;;;5003188;28;20271;-90
2022/01/31 09:28:18;;;;;;;19.67;9.93;;;5.90;95.60;;;;;;4989787;28;20184;-89
2022/01/31 09:30:45;;;;;;;13.45;7.68;;;5.90;95.60;;;;;;5000625;28;20207;-90
2022/01/31 09:33:12;;;;;;;13.68;4.82;;;6.00;95.00;;;;;;4987318;28;20637;-90
2022/01/31 09:35:40;;;;;;;29.63;16.42;;;6.10;95.10;;;;;;4993798;28;20211;-89
2022/01/31 09:38:08;;;;;;;49.38;25.50;;;6.20;94.90;;;;;;4996579;28;20186;-90
2022/01/31 09:40:35;;;;;;;17.13;8.88;;;6.20;95.00;;;;;;4992235;28;20272;-90
2022/01/31 09:43:53;;;;;;;15.38;8.52;;;6.30;94.90;;;;;;4993270;28;20188;-90
2022/01/31 09:46:17;;;;;;;59.05;26.27;;;6.30;94.80;;;;;;4994950;28;20238;-90
2022/01/31 09:48:44;;;;;;;18.75;9.98;;;6.20;94.80;;;;;;4989525;28;20292;-90
2022/01/31 09:51:18;;;;;;;96.85;46.55;;;6.20;94.80;;;;;;4997220;28;20235;-90
2022/01/31 09:53:58;;;;;;;95.90;46.53;;;6.10;94.90;;;;;;5000350;28;20190;-90
2022/01/31 09:56:30;;;;;;;28.88;12.27;;;6.10;94.90;;;;;;4994316;28;20207;-89
2022/01/31 09:58:57;;;;;;;65.10;26.00;;;6.10;94.80;;;;;;4982901;28;20656;-90
2022/01/31 10:01:30;;;;;;;41.13;24.10;;;6.10;94.80;;;;;;4989299;28;20210;-90
2022/01/31 10:03:59;;;;;;;42.70;23.98;;;6.10;95.00;;;;;;4992983;28;20275;-90
2022/01/31 10:06:33;;;;;;;17.42;11.18;;;6.10;94.70;;;;;;5010241;28;20271;-90
2022/01/31 10:09:16;;;;;;;15.30;4.50;;;6.10;94.80;;;;;;5010635;28;20302;-90
2022/01/31 10:12:04;;;;;;;9.45;3.92;;;6.20;94.70;;;;;;4993926;28;20231;-90
2022/01/31 10:17:24;;;;;;;11.38;4.15;;;6.30;94.50;;;;;;4995891;28;20656;-91
2022/01/31 10:19:53;;;;;;;9.88;3.67;;;6.30;94.40;;;;;;4995952;28;20568;-91
2022/01/31 10:22:20;;;;;;;15.75;4.40;;;6.30;94.20;;;;;;4995242;28;20537;-91
2022/01/31 10:24:48;;;;;;;6.60;3.83;;;6.40;94.10;;;;;;4992255;28;20192;-90
2022/01/31 10:27:22;;;;;;;7.57;3.90;;;6.40;94.00;;;;;;4994106;28;20231;-90
2022/01/31 10:29:50;;;;;;;11.27;7.13;;;6.50;94.20;;;;;;5010962;28;20211;-90
2022/01/31 10:32:25;;;;;;;9.68;4.05;;;6.50;94.00;;;;;;4994311;28;20245;-90
2022/01/31 10:34:53;;;;;;;5.15;2.80;;;6.50;93.50;;;;;;5004423;28;20250;-90
2022/01/31 10:37:22;;;;;;;8.18;3.70;;;6.50;93.60;;;;;;4993182;28;20286;-90
2022/01/31 10:51:33;;;;;;;23.48;15.30;;;6.60;93.20;;;;;;4987737;28;20222;-89
2022/01/31 10:56:38;;;;;;;15.25;5.10;;;6.60;93.10;;;;;;4993095;28;20206;-90
2022/01/31 10:59:08;;;;;;;8.80;3.88;;;6.60;92.90;;;;;;4992646;28;20172;-90
2022/01/31 11:01:37;;;;;;;27.50;13.18;;;6.60;92.90;;;;;;4992842;28;20215;-90
2022/01/31 11:04:05;;;;;;;14.60;10.20;;;6.60;93.10;;;;;;4993706;28;20181;-90
2022/01/31 11:06:32;;;;;;;7.57;4.75;;;6.60;93.10;;;;;;4993928;28;20211;-90
2022/01/31 11:09:09;;;;;;;18.40;9.85;;;6.70;93.00;;;;;;4994704;28;20616;-89
2022/01/31 11:11:37;;;;;;;16.33;6.45;;;6.70;93.20;;;;;;4994898;28;20230;-90
2022/01/31 11:14:05;;;;;;;6.45;3.80;;;6.70;93.10;;;;;;4991191;28;20274;-90
2022/01/31 11:16:31;;;;;;;15.55;6.90;;;6.70;93.00;;;;;;4992003;28;20211;-89
2022/01/31 11:19:00;;;;;;;74.65;34.47;;;6.70;93.10;;;;;;4991839;28;20210;-90
2022/01/31 11:21:29;;;;;;;67.43;31.80;;;6.70;93.20;;;;;;4992888;28;20273;-89
2022/01/31 11:24:02;;;;;;;12.27;6.45;;;6.60;93.60;;;;;;4987194;28;20230;-90
2022/01/31 11:26:36;;;;;;;60.95;29.20;;;6.60;93.30;;;;;;4991831;28;20725;-90
2022/01/31 11:29:04;;;;;;;101.88;44.35;;;6.60;93.20;;;;;;4992558;28;20205;-89
2022/01/31 11:31:31;;;;;;;65.32;29.70;;;6.60;93.40;;;;;;4992868;28;20652;-89
2022/01/31 11:33:58;;;;;;;138.30;53.95;;;6.60;93.40;;;;;;4988091;28;20194;-90
2022/01/31 11:36:24;;;;;;;9.65;3.55;;;6.60;93.30;;;;;;4990797;28;20310;-90
2022/01/31 11:38:51;;;;;;;18.92;13.32;;;6.60;93.20;;;;;;4996977;28;20633;-90
2022/01/31 11:41:18;;;;;;;18.30;6.43;;;6.60;93.50;;;;;;4992145;28;20211;-90
2022/01/31 11:43:58;;;;;;;12.40;4.72;;;6.60;93.30;;;;;;5014777;28;20573;-89
2022/01/31 11:46:24;;;;;;;13.20;5.13;;;6.60;93.10;;;;;;4987193;28;20298;-90
2022/01/31 11:48:54;;;;;;;11.98;6.30;;;6.60;93.20;;;;;;4992431;28;20184;-90
2022/01/31 11:51:21;;;;;;;12.38;6.80;;;6.60;93.40;;;;;;4989650;28;20306;-89
2022/01/31 11:53:48;;;;;;;19.30;7.90;;;6.60;94.00;;;;;;4992408;28;20603;-89
2022/01/31 11:56:22;;;;;;;21.10;9.35;;;6.60;94.10;;;;;;4988898;28;20302;-90
2022/01/31 11:58:55;;;;;;;18.55;9.45;;;6.60;94.30;;;;;;4996082;28;20183;-90
2022/01/31 12:01:22;;;;;;;15.23;7.38;;;6.70;94.20;;;;;;4992816;28;20206;-90
2022/01/31 12:03:57;;;;;;;13.23;7.78;;;6.70;93.80;;;;;;4997454;28;20187;-91
2022/01/31 12:06:25;;;;;;;14.70;7.63;;;6.70;93.90;;;;;;4990655;28;20199;-89
2022/01/31 12:09:05;;;;;;;13.13;7.65;;;6.60;93.80;;;;;;4991567;28;20223;-89
2022/01/31 12:11:51;;;;;;;28.77;19.85;;;6.60;93.70;;;;;;4993489;28;20223;-89
2022/01/31 12:14:32;;;;;;;16.80;9.15;;;6.60;94.00;;;;;;5017576;28;20183;-90
2022/01/31 12:17:31;;;;;;;24.17;9.65;;;6.60;94.10;;;;;;4996367;28;20294;-89
2022/01/31 12:20:00;;;;;;;16.58;7.97;;;6.60;94.00;;;;;;4995410;28;20689;-89
2022/01/31 12:22:40;;;;;;;13.85;7.30;;;6.60;93.70;;;;;;4989091;28;20198;-90
2022/01/31 12:25:28;;;;;;;15.18;7.22;;;6.60;93.80;;;;;;4991336;28;20254;-90
2022/01/31 12:27:55;;;;;;;19.08;9.18;;;6.60;93.70;;;;;;4996504;28;20671;-89
2022/01/31 12:30:36;;;;;;;19.90;7.47;;;6.50;93.60;;;;;;4997704;28;20263;-89
2022/01/31 12:33:03;;;;;;;16.52;10.00;;;6.40;93.50;;;;;;4992156;28;20188;-89
2022/01/31 12:35:35;;;;;;;25.13;15.35;;;6.40;93.80;;;;;;4989241;28;20294;-88
2022/01/31 12:38:03;;;;;;;13.68;7.30;;;6.40;93.80;;;;;;4992834;28;20194;-90
2022/01/31 12:40:33;;;;;;;16.13;9.25;;;6.40;93.70;;;;;;4992487;28;20248;-89
2022/01/31 12:46:04;;;;;;;18.38;7.85;;;6.30;93.70;;;;;;5000052;28;20213;-90
2022/01/31 12:48:30;;;;;;;25.98;8.82;;;6.30;94.00;;;;;;5004510;28;20295;-89
2022/01/31 12:50:56;;;;;;;18.50;10.13;;;6.40;94.60;;;;;;4996737;28;20222;-89
2022/01/31 12:53:36;;;;;;;21.23;8.02;;;6.30;94.90;;;;;;4994379;28;20407;-90
2022/01/31 12:56:29;;;;;;;15.52;8.27;;;6.30;94.90;;;;;;4990055;28;20207;-90
2022/01/31 12:59:11;;;;;;;16.40;7.82;;;6.30;94.90;;;;;;4990945;28;20184;-89
2022/01/31 13:01:49;;;;;;;14.02;7.78;;;6.30;95.10;;;;;;4995453;28;20272;-89
2022/01/31 13:04:35;;;;;;;18.13;8.30;;;6.20;95.00;;;;;;4991543;28;20188;-89
2022/01/31 13:07:08;;;;;;;17.10;7.05;;;6.20;95.40;;;;;;5016082;28;20176;-89
2022/01/31 13:09:43;;;;;;;19.55;11.30;;;6.20;95.60;;;;;;4990597;28;20636;-89
2022/01/31 13:12:14;;;;;;;14.93;7.97;;;6.10;95.50;;;;;;4989309;28;20223;-90
2022/01/31 13:14:49;;;;;;;14.15;7.78;;;6.10;95.30;;;;;;4986106;28;20246;-89
2022/01/31 13:17:17;;;;;;;11.63;4.60;;;6.10;95.10;;;;;;4989139;28;20188;-90
2022/01/31 13:19:54;;;;;;;14.02;6.45;;;6.10;94.70;;;;;;4991226;28;20200;-90
2022/01/31 13:22:28;;;;;;;16.00;9.77;;;6.10;94.60;;;;;;4992000;28;20188;-89
2022/01/31 13:25:02;;;;;;;22.45;13.27;;;6.10;94.60;;;;;;4989496;28;20204;-90
2022/01/31 13:27:36;;;;;;;15.20;8.02;;;6.10;94.40;;;;;;4988623;28;20191;-89
2022/01/31 13:30:05;;;;;;;19.92;13.52;;;6.10;94.30;;;;;;4996007;28;20235;-89
2022/01/31 13:32:36;;;;;;;21.55;9.35;;;6.20;94.20;;;;;;4971221;28;20613;-88